Lodi, New York
Current Conditions -  °F | °C
As of 3:53 AM on Wednesday 28 Jan 2015 (Local Time) from KPEO Reporting Station
Clear Clear  
Wind Chill: -6°   Ceiling: Unl
Heat Index:   Visibility: 10mi
Dew Point: -2°   Wind: 6mph
Humidity: 73%   Direction: 240°WSW
Pressure: 30.05"   Gusts: NA
Location:  42.61°N, 76.82°W
Report Text: KPEO 280853Z AUTO 24005KT 10SM CLR M15/M19 A3005 RMK AO2 SLP197 T11501189 51006
Loading
Personal Weather Stations






























Interactive Weather Map New forecast layout! Learn more

10-Day Weather Forecast

Advertisements
Track Severe Weather on mobile